createdAt,value
2022-09-21T00:01:24.765Z,4.80
2022-09-21T00:03:54.525Z,4.80
2022-09-21T00:06:24.043Z,4.75
2022-09-21T00:08:52.979Z,4.65
2022-09-21T00:14:46.178Z,4.47
2022-09-21T00:17:14.148Z,4.65
2022-09-21T00:19:42.161Z,4.45
2022-09-21T00:22:10.872Z,4.60
2022-09-21T00:24:38.188Z,5.63
2022-09-21T00:30:06.114Z,4.72
2022-09-21T00:32:36.976Z,5.00
2022-09-21T00:35:06.808Z,4.47
2022-09-21T00:37:35.129Z,4.20
2022-09-21T00:40:03.255Z,4.28
2022-09-21T00:43:16.908Z,4.68
2022-09-21T00:45:48.240Z,5.03
2022-09-21T00:51:09.160Z,4.28
2022-09-21T00:53:42.748Z,4.70
2022-09-21T00:56:11.651Z,4.30
2022-09-21T01:01:38.552Z,3.83
2022-09-21T01:04:07.103Z,4.15
2022-09-21T01:06:36.849Z,3.95
2022-09-21T01:09:04.825Z,4.57
2022-09-21T01:11:43.504Z,4.30
2022-09-21T01:14:37.616Z,3.95
2022-09-21T01:17:44.331Z,4.65
2022-09-21T01:20:29.417Z,4.57
2022-09-21T01:23:20.072Z,4.00
2022-09-21T01:26:12.264Z,4.40
2022-09-21T01:29:01.495Z,4.47
2022-09-21T01:32:16.757Z,4.47
2022-09-21T01:34:54.502Z,4.40
2022-09-21T01:37:36.184Z,4.18
2022-09-21T01:40:11.071Z,4.25
2022-09-21T01:42:40.914Z,4.03
2022-09-21T01:45:17.207Z,4.30
2022-09-21T01:47:47.752Z,3.97
2022-09-21T01:50:26.818Z,4.60
2022-09-21T01:53:11.429Z,4.10
2022-09-21T01:55:49.830Z,3.80
2022-09-21T01:58:33.107Z,4.20
2022-09-21T02:01:00.942Z,4.20
2022-09-21T02:03:54.385Z,3.65
2022-09-21T02:06:24.667Z,3.70
2022-09-21T02:09:03.265Z,3.90
2022-09-21T02:11:30.239Z,4.18
2022-09-21T02:13:58.160Z,3.58
2022-09-21T02:16:38.812Z,4.03
2022-09-21T02:19:46.696Z,3.58
2022-09-21T02:22:34.246Z,3.88
2022-09-21T02:25:15.763Z,3.97
2022-09-21T02:28:06.372Z,3.58
2022-09-21T02:30:35.948Z,4.00
2022-09-21T02:33:09.120Z,3.60
2022-09-21T02:35:58.665Z,4.57
2022-09-21T02:38:38.554Z,3.72
2022-09-21T02:44:38.143Z,3.90
2022-09-21T02:47:31.595Z,3.28
2022-09-21T02:50:11.282Z,3.80
2022-09-21T02:52:41.495Z,4.75
2022-09-21T02:55:09.876Z,3.67
2022-09-21T02:57:38.884Z,3.58
2022-09-21T03:03:22.045Z,3.45
2022-09-21T03:05:53.491Z,3.80
2022-09-21T03:08:22.047Z,3.22
2022-09-21T03:10:53.222Z,3.25
2022-09-21T03:13:46.598Z,3.20
2022-09-21T03:16:15.651Z,3.72
2022-09-21T03:18:44.602Z,3.58
2022-09-21T03:21:18.302Z,3.38
2022-09-21T03:23:46.139Z,3.58
2022-09-21T03:26:19.251Z,4.20
2022-09-21T03:28:46.135Z,4.03
2022-09-21T03:31:14.282Z,3.80
2022-09-21T03:33:42.137Z,3.88
2022-09-21T03:36:15.206Z,3.70
2022-09-21T03:38:47.180Z,3.17
2022-09-21T03:41:15.265Z,3.42
2022-09-21T03:43:42.169Z,3.75
2022-09-21T03:49:03.003Z,3.17
2022-09-21T03:54:29.627Z,3.65
2022-09-21T03:57:01.169Z,3.50
2022-09-21T03:59:28.133Z,3.38
2022-09-21T04:01:56.185Z,3.55
2022-09-21T04:04:24.145Z,3.47
2022-09-21T04:06:56.398Z,3.53
2022-09-21T04:09:24.257Z,3.67
2022-09-21T04:14:46.278Z,3.35
2022-09-21T04:17:14.655Z,3.50
2022-09-21T04:19:47.214Z,3.53
2022-09-21T04:22:24.832Z,3.47
2022-09-21T04:24:52.420Z,3.50
2022-09-21T04:27:29.872Z,3.40
2022-09-21T04:30:03.386Z,2.90
2022-09-21T04:32:30.158Z,3.45
2022-09-21T04:34:58.261Z,3.13
2022-09-21T04:37:26.259Z,3.30
2022-09-21T04:39:54.134Z,3.83
2022-09-21T04:42:47.824Z,3.40
2022-09-21T04:45:16.189Z,2.85
2022-09-21T04:47:44.153Z,3.45
2022-09-21T04:50:12.258Z,2.85
2022-09-21T04:52:40.604Z,3.35
2022-09-21T04:55:08.375Z,3.53
2022-09-21T05:00:55.891Z,3.40
2022-09-21T05:03:48.248Z,3.60
2022-09-21T05:06:25.179Z,3.58
2022-09-21T05:12:03.118Z,3.45
2022-09-21T05:14:30.166Z,3.70
2022-09-21T05:17:03.262Z,3.33
2022-09-21T05:19:30.236Z,3.65
2022-09-21T05:22:02.224Z,3.33
2022-09-21T05:27:46.301Z,3.13
2022-09-21T05:30:38.523Z,3.67
2022-09-21T05:36:34.578Z,3.67
2022-09-21T05:39:03.026Z,3.08
2022-09-21T05:41:35.903Z,3.47
2022-09-21T05:47:05.743Z,3.47
2022-09-21T05:49:51.419Z,3.70
2022-09-21T05:52:20.838Z,3.70
2022-09-21T05:55:31.835Z,3.65
2022-09-21T05:58:53.458Z,3.70
2022-09-21T06:01:23.247Z,3.30
2022-09-21T06:03:50.480Z,4.00
2022-09-21T06:06:18.997Z,4.00
2022-09-21T06:09:12.178Z,3.90
2022-09-21T06:11:40.181Z,3.60
2022-09-21T06:14:32.741Z,3.85
2022-09-21T06:17:00.364Z,3.70
2022-09-21T06:19:28.537Z,4.03
2022-09-21T06:22:00.176Z,4.30
2022-09-21T06:24:28.257Z,3.70
2022-09-21T06:26:56.568Z,3.85
2022-09-21T06:29:24.539Z,4.07
2022-09-21T06:31:52.352Z,4.18
2022-09-21T06:34:20.286Z,4.03
2022-09-21T06:36:48.182Z,4.65
2022-09-21T06:39:20.177Z,4.25
2022-09-21T06:41:48.222Z,4.65
2022-09-21T06:44:21.183Z,5.43
2022-09-21T06:49:42.475Z,4.88
2022-09-21T06:52:10.323Z,5.25
2022-09-21T06:54:38.927Z,6.43
2022-09-21T06:57:06.403Z,6.57
2022-09-21T06:59:34.179Z,6.63
2022-09-21T07:02:02.261Z,6.30
2022-09-21T07:04:30.124Z,6.88
2022-09-21T07:07:24.369Z,7.57
2022-09-21T07:10:12.086Z,7.50
2022-09-21T07:12:44.924Z,8.02
2022-09-21T07:15:13.405Z,9.63
2022-09-21T07:17:40.312Z,9.32
2022-09-21T07:20:08.588Z,11.60
2022-09-21T07:22:36.566Z,9.57
2022-09-21T07:25:05.442Z,11.23
2022-09-21T07:27:33.201Z,10.02
2022-09-21T07:30:00.210Z,9.70
2022-09-21T07:32:28.304Z,11.02
2022-09-21T07:34:56.963Z,10.05
2022-09-21T07:37:25.343Z,9.27
2022-09-21T07:39:53.116Z,9.88
2022-09-21T07:42:27.913Z,8.77
2022-09-21T07:45:03.852Z,8.93
2022-09-21T07:47:32.324Z,8.38
2022-09-21T07:50:00.362Z,9.13
2022-09-21T07:52:32.223Z,7.97
2022-09-21T07:55:00.301Z,8.13
2022-09-21T08:00:38.293Z,7.88
2022-09-21T08:03:06.784Z,7.35
2022-09-21T08:05:34.186Z,7.55
2022-09-21T08:08:02.635Z,6.65
2022-09-21T08:10:32.109Z,5.68
2022-09-21T08:13:05.301Z,5.10
2022-09-21T08:15:48.664Z,5.15
2022-09-21T08:21:12.163Z,3.97
2022-09-21T08:26:34.310Z,3.78
2022-09-21T08:29:09.942Z,3.53
2022-09-21T08:31:46.318Z,3.85
2022-09-21T08:34:38.850Z,2.20
2022-09-21T08:37:06.144Z,2.00
2022-09-21T08:39:34.228Z,2.13
2022-09-21T08:42:11.422Z,1.40
2022-09-21T08:44:44.068Z,0.80
2022-09-21T08:47:26.339Z,1.20
2022-09-21T08:50:07.016Z,1.40
2022-09-21T08:52:34.956Z,1.60
2022-09-21T09:01:21.424Z,1.10
2022-09-21T09:07:19.573Z,1.23
2022-09-21T09:13:10.798Z,0.70
2022-09-21T09:15:45.421Z,0.70
2022-09-21T09:18:17.808Z,1.13
2022-09-21T09:20:56.872Z,0.90
2022-09-21T09:23:29.061Z,1.08
2022-09-21T09:48:50.721Z,1.02
2022-09-21T09:54:10.450Z,0.82
2022-09-21T11:15:35.384Z,0.63
2022-09-21T11:18:09.371Z,0.40
2022-09-21T11:20:55.191Z,0.70
2022-09-21T11:23:46.011Z,0.60
2022-09-21T11:26:30.507Z,0.60
2022-09-21T11:29:01.573Z,0.55
2022-09-21T11:31:40.657Z,0.50
2022-09-21T11:34:44.728Z,0.45
2022-09-21T11:37:28.829Z,0.60
2022-09-21T12:02:42.880Z,0.57
2022-09-21T12:05:36.330Z,0.73
2022-09-21T12:08:26.108Z,0.60
2022-09-21T12:11:14.286Z,0.50
2022-09-21T12:14:22.192Z,0.40
2022-09-21T12:17:11.514Z,0.30
2022-09-21T12:20:02.203Z,0.60
2022-09-21T12:22:33.900Z,0.30
2022-09-21T12:25:17.285Z,0.40
2022-09-21T12:27:54.687Z,0.40
2022-09-21T12:30:24.085Z,0.40
2022-09-21T12:32:59.400Z,0.60
2022-09-21T12:35:35.159Z,0.38
2022-09-21T12:41:24.725Z,0.75
2022-09-21T12:44:26.799Z,0.60
2022-09-21T12:47:10.977Z,0.40
2022-09-21T12:49:46.543Z,0.40
2022-09-21T12:52:21.435Z,0.40
2022-09-21T13:15:07.443Z,0.52
2022-09-21T13:17:34.361Z,0.70
2022-09-21T13:20:05.182Z,0.60
2022-09-21T13:32:14.584Z,0.57
2022-09-21T13:34:44.081Z,0.60
2022-09-21T13:37:16.689Z,0.65
2022-09-21T13:40:03.285Z,0.38
2022-09-21T13:45:27.908Z,0.50
2022-09-21T13:48:00.899Z,0.47
2022-09-21T13:50:46.268Z,0.55
2022-09-21T13:53:22.739Z,0.50
2022-09-21T13:56:21.725Z,0.50
2022-09-21T13:59:01.760Z,0.73
2022-09-21T14:01:46.768Z,0.57
2022-09-21T14:04:27.879Z,0.82
2022-09-21T14:06:57.848Z,0.50
2022-09-21T14:10:00.750Z,0.90
2022-09-21T14:12:54.379Z,0.88
2022-09-21T14:15:22.108Z,0.70
2022-09-21T14:18:19.760Z,0.88
2022-09-21T14:21:23.927Z,1.00
2022-09-21T14:24:21.974Z,0.90
2022-09-21T14:26:59.630Z,0.52
2022-09-21T14:29:34.855Z,0.65
2022-09-21T14:32:05.845Z,0.70
2022-09-21T14:34:41.180Z,0.60
2022-09-21T14:37:38.784Z,1.00
2022-09-21T14:43:17.289Z,1.05
2022-09-21T14:46:18.500Z,1.20
2022-09-21T14:52:38.680Z,0.60
2022-09-21T14:55:27.821Z,0.80
2022-09-21T14:58:19.256Z,0.80
2022-09-21T15:00:51.316Z,0.75
2022-09-21T15:06:49.580Z,0.80
2022-09-21T15:09:49.250Z,0.80
2022-09-21T15:12:31.829Z,0.93
2022-09-21T15:16:00.043Z,0.73
2022-09-21T15:19:27.993Z,0.90
2022-09-21T15:22:17.969Z,0.85
2022-09-21T15:24:59.180Z,0.70
2022-09-21T15:27:34.096Z,0.90
2022-09-21T15:30:05.937Z,1.05
2022-09-21T15:32:41.148Z,0.63
2022-09-21T15:35:29.250Z,0.70
2022-09-21T15:38:02.136Z,1.00
2022-09-21T15:40:32.023Z,0.80
2022-09-21T15:43:05.745Z,0.70
2022-09-21T15:45:38.958Z,0.50
2022-09-21T15:48:14.436Z,0.82
2022-09-21T15:50:48.606Z,0.40
2022-09-21T15:53:26.999Z,0.80
2022-09-21T15:55:56.025Z,0.60
2022-09-21T15:58:42.768Z,0.77
2022-09-21T16:01:24.344Z,0.77
2022-09-21T16:13:56.815Z,0.88
2022-09-21T16:16:24.333Z,1.00
2022-09-21T16:18:55.211Z,1.27
2022-09-21T16:21:34.173Z,1.20
2022-09-21T16:24:19.514Z,1.30
2022-09-21T16:27:01.569Z,0.98
2022-09-21T16:29:39.980Z,1.20
2022-09-21T16:32:27.474Z,1.05
2022-09-21T16:35:32.835Z,0.93
2022-09-21T16:38:09.953Z,1.08
2022-09-21T16:40:39.631Z,1.08
2022-09-21T16:43:10.724Z,0.93
2022-09-21T16:45:38.541Z,0.95
2022-09-21T16:48:07.858Z,1.02
2022-09-21T16:50:36.482Z,1.15
2022-09-21T16:53:04.756Z,1.10
2022-09-21T16:55:39.624Z,1.30
2022-09-21T16:58:06.168Z,1.17
2022-09-21T17:01:00.844Z,1.00
2022-09-21T17:03:30.750Z,1.10
2022-09-21T17:05:58.262Z,0.90
2022-09-21T17:08:28.094Z,1.20
2022-09-21T17:11:03.099Z,1.23
2022-09-21T17:13:32.123Z,1.10
2022-09-21T17:16:00.602Z,1.30
2022-09-21T17:18:35.733Z,1.00
2022-09-21T17:21:04.544Z,1.20
2022-09-21T17:23:32.149Z,1.17
2022-09-21T17:26:00.311Z,1.02
2022-09-21T17:28:32.497Z,1.23
2022-09-21T17:34:23.358Z,1.83
2022-09-21T17:36:50.742Z,2.00
2022-09-21T17:39:20.136Z,1.75
2022-09-21T17:42:16.562Z,1.90
2022-09-21T17:45:06.712Z,2.05
2022-09-21T17:47:35.043Z,2.50
2022-09-21T17:50:08.212Z,2.70
2022-09-21T17:53:01.009Z,2.45
2022-09-21T17:55:28.915Z,2.70
2022-09-21T17:58:23.371Z,2.70
2022-09-21T18:01:14.934Z,2.75
2022-09-21T18:03:44.477Z,2.88
2022-09-21T18:06:12.616Z,4.25
2022-09-21T18:08:44.407Z,3.92
2022-09-21T18:11:18.405Z,3.92
2022-09-21T18:14:08.881Z,3.40
2022-09-21T18:17:11.066Z,3.33
2022-09-21T18:20:06.209Z,3.47
2022-09-21T18:23:14.854Z,3.67
2022-09-21T18:25:50.500Z,3.30
2022-09-21T18:28:46.947Z,3.58
2022-09-21T18:32:01.137Z,3.20
2022-09-21T18:34:40.194Z,3.10
2022-09-21T18:37:42.998Z,3.53
2022-09-21T18:40:24.261Z,2.85
2022-09-21T18:43:02.200Z,2.65
2022-09-21T18:45:38.188Z,2.90
2022-09-21T18:48:23.074Z,2.67
2022-09-21T18:54:22.632Z,2.47
2022-09-21T18:56:50.516Z,2.90
2022-09-21T18:59:18.781Z,3.08
2022-09-21T19:01:48.462Z,2.45
2022-09-21T19:04:21.266Z,2.80
2022-09-21T19:10:44.234Z,3.00
2022-09-21T19:13:31.700Z,3.65
2022-09-21T19:16:17.583Z,3.60
2022-09-21T19:19:17.235Z,3.70
2022-09-21T19:21:58.801Z,2.95
2022-09-21T19:25:24.950Z,3.60
2022-09-21T19:28:36.373Z,4.55
2022-09-21T19:31:13.108Z,3.95
2022-09-21T19:33:55.685Z,3.80
2022-09-21T19:36:24.327Z,3.88
2022-09-21T19:38:53.178Z,4.45
2022-09-21T19:45:13.777Z,6.38
2022-09-21T19:48:13.420Z,6.95
2022-09-21T19:50:50.122Z,6.45
2022-09-21T19:53:36.933Z,6.03
2022-09-21T19:56:28.205Z,4.72
2022-09-21T19:59:20.452Z,3.78
2022-09-21T20:02:02.055Z,4.15
2022-09-21T20:04:48.779Z,4.70
2022-09-21T20:07:37.087Z,4.35
2022-09-21T20:10:27.957Z,4.88
2022-09-21T20:13:22.364Z,4.78
2022-09-21T20:16:21.911Z,4.85
2022-09-21T20:19:17.529Z,5.47
2022-09-21T20:22:19.490Z,4.93
2022-09-21T20:24:54.637Z,4.68
2022-09-21T20:27:32.376Z,12.73
2022-09-21T20:30:05.220Z,8.57
2022-09-21T20:32:34.114Z,8.70
2022-09-21T20:35:07.664Z,7.38
2022-09-21T20:37:36.185Z,5.82
2022-09-21T20:40:04.661Z,5.65
2022-09-21T20:42:33.564Z,5.22
2022-09-21T20:45:00.284Z,5.32
2022-09-21T20:47:30.014Z,5.05
2022-09-21T20:50:03.306Z,5.35
2022-09-21T20:52:31.749Z,5.57
2022-09-21T20:55:00.933Z,6.50
2022-09-21T20:57:28.341Z,6.70
2022-09-21T20:59:56.175Z,6.28
2022-09-21T21:02:33.155Z,6.15
2022-09-21T21:05:00.632Z,6.18
2022-09-21T21:07:30.682Z,7.07
2022-09-21T21:09:58.683Z,6.95
2022-09-21T21:12:26.209Z,7.18
2022-09-21T21:14:54.553Z,7.03
2022-09-21T21:17:49.022Z,7.45
2022-09-21T21:20:17.009Z,7.28
2022-09-21T21:22:45.614Z,7.10
2022-09-21T21:25:36.877Z,7.25
2022-09-21T21:28:30.234Z,8.40
2022-09-21T21:35:37.498Z,7.13
2022-09-21T21:38:19.637Z,7.03
2022-09-21T21:41:13.504Z,6.85
2022-09-21T21:43:43.059Z,6.75
2022-09-21T22:04:45.589Z,5.07
2022-09-21T22:07:12.208Z,5.55
2022-09-21T22:09:45.301Z,6.32
2022-09-21T22:12:12.455Z,6.13
2022-09-21T22:14:46.484Z,6.63
2022-09-21T22:17:14.414Z,5.75
2022-09-21T22:19:49.392Z,5.95
2022-09-21T22:22:16.339Z,6.15
2022-09-21T22:24:49.219Z,6.40
2022-09-21T22:27:16.683Z,6.40
2022-09-21T22:29:50.213Z,6.15
2022-09-21T22:32:18.809Z,6.95
2022-09-21T22:34:46.441Z,7.22
2022-09-21T22:37:39.872Z,7.60
2022-09-21T22:40:08.816Z,7.78
2022-09-21T22:42:36.167Z,7.43
2022-09-21T22:45:04.430Z,6.72
2022-09-21T22:47:32.137Z,7.10
2022-09-21T22:50:00.165Z,6.63
2022-09-21T22:52:28.138Z,6.35
2022-09-21T22:55:20.193Z,6.88
2022-09-21T22:57:48.181Z,6.60
2022-09-21T23:00:25.212Z,7.20
2022-09-21T23:02:56.111Z,7.63
2022-09-21T23:05:24.379Z,7.00
2022-09-21T23:08:21.205Z,7.00
2022-09-21T23:10:48.456Z,6.72
2022-09-21T23:13:16.356Z,7.70
2022-09-21T23:15:44.157Z,6.93
2022-09-21T23:18:17.202Z,5.95
2022-09-21T23:20:44.222Z,6.32
2022-09-21T23:23:12.309Z,7.32
2022-09-21T23:25:40.577Z,8.85
2022-09-21T23:28:08.201Z,6.93
2022-09-21T23:30:41.218Z,7.32
2022-09-21T23:33:08.271Z,7.28
2022-09-21T23:35:41.320Z,6.53
2022-09-21T23:38:08.346Z,6.45
2022-09-21T23:40:41.348Z,6.80
2022-09-21T23:43:08.329Z,7.22
2022-09-21T23:46:02.800Z,6.50
2022-09-21T23:48:30.618Z,7.28
2022-09-21T23:53:50.612Z,6.55
2022-09-21T23:56:49.017Z,6.47
2022-09-21T23:59:16.158Z,5.78
